createdAt,value
2019-02-02T00:00:38.150Z,31.33
2019-02-02T00:03:07.844Z,32.50
2019-02-02T00:05:36.217Z,31.10
2019-02-02T00:08:05.836Z,30.90
2019-02-02T00:10:34.460Z,31.43
2019-02-02T00:13:02.920Z,32.20
2019-02-02T00:15:31.379Z,28.23
2019-02-02T00:17:59.754Z,30.70
2019-02-02T00:20:28.142Z,30.97
2019-02-02T00:22:56.519Z,28.60
2019-02-02T00:25:24.904Z,31.00
2019-02-02T00:27:53.279Z,29.30
2019-02-02T00:30:21.668Z,30.80
2019-02-02T00:32:50.044Z,29.90
2019-02-02T00:35:18.433Z,29.40
2019-02-02T00:37:46.807Z,31.57
2019-02-02T00:40:21.764Z,30.27
2019-02-02T00:42:50.145Z,30.73
2019-02-02T00:45:22.672Z,28.43
2019-02-02T00:47:52.280Z,27.07
2019-02-02T00:50:20.659Z,30.60
2019-02-02T00:52:49.112Z,31.70
2019-02-02T00:55:20.759Z,29.23
2019-02-02T00:57:53.410Z,32.40
2019-02-02T01:00:26.896Z,30.23
2019-02-02T01:02:55.339Z,28.70
2019-02-02T01:05:24.669Z,27.70
2019-02-02T01:07:54.272Z,31.03
2019-02-02T01:10:34.760Z,29.10
2019-02-02T01:13:03.368Z,27.97
2019-02-02T01:15:31.818Z,27.23
2019-02-02T01:18:00.200Z,28.43
2019-02-02T01:20:29.857Z,30.50
2019-02-02T01:22:58.410Z,31.00
2019-02-02T01:25:26.859Z,28.00
2019-02-02T01:28:04.915Z,28.97
2019-02-02T01:30:26.384Z,27.98
2019-02-02T01:32:54.825Z,28.73
2019-02-02T01:35:23.206Z,29.03
2019-02-02T01:37:51.652Z,30.83
2019-02-02T01:40:27.649Z,30.53
2019-02-02T01:43:33.333Z,31.40
2019-02-02T01:46:33.163Z,30.10
2019-02-02T01:49:02.689Z,29.67
2019-02-02T01:51:40.058Z,28.73
2019-02-02T01:57:16.694Z,29.27
2019-02-02T02:00:10.417Z,26.83
2019-02-02T02:02:51.286Z,28.20
2019-02-02T02:08:34.278Z,29.70
2019-02-02T02:11:03.508Z,29.07
2019-02-02T02:13:51.967Z,27.60
2019-02-02T02:16:39.467Z,29.00
2019-02-02T02:19:07.838Z,28.83
2019-02-02T02:21:36.238Z,32.93
2019-02-02T02:24:04.694Z,31.47
2019-02-02T02:26:52.199Z,30.73
2019-02-02T02:29:39.830Z,31.17
2019-02-02T02:32:08.215Z,30.50
2019-02-02T02:34:36.597Z,28.07
2019-02-02T02:37:04.975Z,29.80
2019-02-02T02:39:33.350Z,28.40
2019-02-02T02:42:01.737Z,30.17
2019-02-02T02:44:49.355Z,30.23
2019-02-02T02:47:17.741Z,30.53
2019-02-02T02:50:05.359Z,29.53
2019-02-02T02:52:33.743Z,29.00
2019-02-02T02:55:21.232Z,32.20
2019-02-02T02:57:49.609Z,30.57
2019-02-02T03:00:37.329Z,30.73
2019-02-02T03:03:45.660Z,32.17
2019-02-02T03:06:33.270Z,29.83
2019-02-02T03:09:41.553Z,30.00
2019-02-02T03:12:29.057Z,30.70
2019-02-02T03:20:39.577Z,29.20
2019-02-02T03:23:27.215Z,29.40
2019-02-02T03:31:37.187Z,31.53
2019-02-02T03:34:05.575Z,29.87
2019-02-02T03:36:53.188Z,29.67
2019-02-02T03:39:21.568Z,32.20
2019-02-02T03:41:49.943Z,29.10
2019-02-02T03:44:18.327Z,29.90
2019-02-02T03:46:46.697Z,28.50
2019-02-02T03:49:15.115Z,27.87
2019-02-02T03:51:43.488Z,29.40
2019-02-02T03:54:11.891Z,27.03
2019-02-02T03:56:40.263Z,29.10
2019-02-02T03:59:08.650Z,30.37
2019-02-02T04:01:37.039Z,29.37
2019-02-02T04:04:05.494Z,28.70
2019-02-02T04:06:33.868Z,28.80
2019-02-02T04:09:02.246Z,30.73
2019-02-02T04:11:30.621Z,30.70
2019-02-02T04:13:59.000Z,30.17
2019-02-02T04:16:27.478Z,32.03
2019-02-02T04:18:55.863Z,31.10
2019-02-02T04:21:24.239Z,32.47
2019-02-02T04:23:52.829Z,33.20
2019-02-02T04:26:21.246Z,31.27
2019-02-02T04:28:49.866Z,31.97
2019-02-02T04:31:18.240Z,34.47
2019-02-02T04:33:46.624Z,31.80
2019-02-02T04:36:14.999Z,33.50
2019-02-02T04:38:43.385Z,32.70
2019-02-02T04:41:11.763Z,32.37
2019-02-02T04:43:40.163Z,30.87
2019-02-02T04:46:08.535Z,31.53
2019-02-02T04:48:36.921Z,31.47
2019-02-02T04:51:05.386Z,31.13
2019-02-02T04:53:33.822Z,29.97
2019-02-02T04:56:02.214Z,31.10
2019-02-02T04:58:30.590Z,31.17
2019-02-02T05:00:58.989Z,32.20
2019-02-02T05:03:27.349Z,31.50
2019-02-02T05:05:55.734Z,31.27
2019-02-02T05:08:24.107Z,31.70
2019-02-02T05:10:52.687Z,30.17
2019-02-02T05:13:21.067Z,31.07
2019-02-02T05:15:49.452Z,29.80
2019-02-02T05:18:17.821Z,32.67
2019-02-02T05:20:46.201Z,31.60
2019-02-02T05:23:14.573Z,33.03
2019-02-02T05:25:42.959Z,32.50
2019-02-02T05:28:11.334Z,32.80
2019-02-02T05:30:39.718Z,34.13
2019-02-02T05:33:08.093Z,32.73
2019-02-02T05:35:36.800Z,30.07
2019-02-02T05:38:05.174Z,34.20
2019-02-02T05:40:33.560Z,34.47
2019-02-02T05:43:01.936Z,29.13
2019-02-02T05:45:30.317Z,33.07
2019-02-02T05:47:58.694Z,34.80
2019-02-02T05:50:27.084Z,34.00
2019-02-02T05:52:55.461Z,33.57
2019-02-02T05:55:24.386Z,36.80
2019-02-02T05:57:52.871Z,36.20
2019-02-02T06:00:36.644Z,36.00
2019-02-02T06:03:05.679Z,34.40
2019-02-02T06:05:34.064Z,37.20
2019-02-02T06:08:02.638Z,35.50
2019-02-02T06:10:31.025Z,36.23
2019-02-02T06:12:59.396Z,36.10
2019-02-02T06:15:28.839Z,36.47
2019-02-02T06:17:57.620Z,36.23
2019-02-02T06:20:25.991Z,37.97
2019-02-02T06:22:54.435Z,36.43
2019-02-02T06:25:23.106Z,37.53
2019-02-02T06:27:51.473Z,37.10
2019-02-02T06:30:21.591Z,39.13
2019-02-02T06:32:50.197Z,39.60
2019-02-02T06:35:19.263Z,37.50
2019-02-02T06:37:47.591Z,37.53
2019-02-02T06:40:17.317Z,38.77
2019-02-02T06:42:45.686Z,36.50
2019-02-02T06:45:25.773Z,36.47
2019-02-02T06:47:54.213Z,36.53
2019-02-02T06:50:22.589Z,37.37
2019-02-02T06:52:50.966Z,36.90
2019-02-02T06:55:19.413Z,33.93
2019-02-02T06:57:47.801Z,35.80
2019-02-02T07:00:18.620Z,36.90
2019-02-02T07:02:47.061Z,37.70
2019-02-02T07:05:15.588Z,35.13
2019-02-02T07:07:44.286Z,36.63
2019-02-02T07:10:16.294Z,39.10
2019-02-02T07:12:44.686Z,36.27
2019-02-02T07:15:15.797Z,36.77
2019-02-02T07:17:44.198Z,41.80
2019-02-02T07:20:13.982Z,29.33
2019-02-02T07:22:42.376Z,37.73
2019-02-02T07:25:11.487Z,37.57
2019-02-02T07:27:39.867Z,37.47
2019-02-02T07:30:27.659Z,37.00
2019-02-02T07:32:46.669Z,36.87
2019-02-02T07:35:15.110Z,39.80
2019-02-02T07:37:43.490Z,46.53
2019-02-02T07:40:15.233Z,39.40
2019-02-02T07:42:43.684Z,41.23
2019-02-02T07:45:17.750Z,38.90
2019-02-02T07:47:46.303Z,37.67
2019-02-02T07:50:16.214Z,35.57
2019-02-02T07:52:45.138Z,33.77
2019-02-02T07:55:18.426Z,37.03
2019-02-02T07:57:46.808Z,38.30
2019-02-02T08:00:23.661Z,37.77
2019-02-02T08:02:52.047Z,39.20
2019-02-02T08:05:20.423Z,39.50
2019-02-02T08:07:48.805Z,48.30
2019-02-02T08:10:17.271Z,39.03
2019-02-02T08:12:45.723Z,38.77
2019-02-02T08:15:28.525Z,43.07
2019-02-02T08:17:57.078Z,39.07
2019-02-02T08:20:25.449Z,43.43
2019-02-02T08:22:56.452Z,51.73
2019-02-02T08:25:23.929Z,43.03
2019-02-02T08:27:52.423Z,40.33
2019-02-02T08:30:23.510Z,41.67
2019-02-02T08:32:51.897Z,38.27
2019-02-02T08:35:20.608Z,38.57
2019-02-02T08:37:49.158Z,39.40
2019-02-02T08:40:19.370Z,38.83
2019-02-02T08:42:47.753Z,39.77
2019-02-02T08:45:16.603Z,37.17
2019-02-02T08:47:44.948Z,38.37
2019-02-02T08:50:25.231Z,38.73
2019-02-02T08:52:53.820Z,36.50
2019-02-02T08:55:22.212Z,36.50
2019-02-02T08:57:50.689Z,38.93
2019-02-02T09:00:20.865Z,38.50
2019-02-02T09:02:49.338Z,40.30
2019-02-02T09:05:20.270Z,38.63
2019-02-02T09:07:48.650Z,37.90
2019-02-02T09:10:25.599Z,36.90
2019-02-02T09:12:54.143Z,36.83
2019-02-02T09:15:22.542Z,38.37
2019-02-02T09:17:50.918Z,37.73
2019-02-02T09:20:19.393Z,36.47
2019-02-02T09:22:49.393Z,39.93
2019-02-02T09:25:18.916Z,38.77
2019-02-02T09:27:47.422Z,38.67
2019-02-02T09:30:18.783Z,37.37
2019-02-02T09:32:47.156Z,38.00
2019-02-02T09:35:15.673Z,37.17
2019-02-02T09:37:44.049Z,35.13
2019-02-02T09:40:17.430Z,37.10
2019-02-02T09:43:05.210Z,35.07
2019-02-02T09:45:33.593Z,35.30
2019-02-02T09:48:01.968Z,37.80
2019-02-02T09:50:30.349Z,38.67
2019-02-02T09:53:17.984Z,36.30
2019-02-02T09:56:05.670Z,40.43
2019-02-02T10:01:27.735Z,37.63
2019-02-02T10:04:10.702Z,42.17
2019-02-02T10:09:13.781Z,40.87
2019-02-02T10:14:35.663Z,42.97
2019-02-02T10:17:23.290Z,38.77
2019-02-02T10:19:51.674Z,39.83
2019-02-02T10:22:42.211Z,37.67
2019-02-02T10:25:50.504Z,40.87
2019-02-02T10:28:18.879Z,38.93
2019-02-02T10:31:06.512Z,38.90
2019-02-02T10:33:54.129Z,39.23
2019-02-02T10:36:22.586Z,39.17
2019-02-02T10:39:10.251Z,37.67
2019-02-02T10:44:12.202Z,38.83
2019-02-02T10:46:40.650Z,38.60
2019-02-02T10:51:56.526Z,37.30
2019-02-02T10:54:44.250Z,38.53
2019-02-02T10:57:12.642Z,38.70
2019-02-02T11:02:47.582Z,37.77
2019-02-02T11:05:55.944Z,40.13
2019-02-02T11:08:24.551Z,37.83
2019-02-02T11:10:54.587Z,41.13
2019-02-02T11:13:43.851Z,41.30
2019-02-02T11:16:12.251Z,39.67
2019-02-02T11:18:59.922Z,39.37
2019-02-02T11:21:28.357Z,40.10
2019-02-02T11:23:56.757Z,39.13
2019-02-02T11:26:32.057Z,42.47
2019-02-02T11:29:02.219Z,39.87
2019-02-02T11:32:02.234Z,40.90
2019-02-02T11:34:21.500Z,40.53
2019-02-02T11:37:08.999Z,41.97
2019-02-02T11:39:56.617Z,41.97
2019-02-02T11:44:58.767Z,41.30
2019-02-02T11:47:46.265Z,42.50
2019-02-02T11:50:54.552Z,42.07
2019-02-02T11:53:22.938Z,42.17
2019-02-02T11:56:13.775Z,42.93
2019-02-02T11:59:01.467Z,40.23
2019-02-02T12:01:48.966Z,41.43
2019-02-02T12:04:17.337Z,43.87
2019-02-02T12:06:45.722Z,41.30
2019-02-02T12:09:14.100Z,44.17
2019-02-02T12:11:42.490Z,44.30
2019-02-02T12:14:10.858Z,44.00
2019-02-02T12:16:58.577Z,42.57
2019-02-02T12:19:26.948Z,43.70
2019-02-02T12:21:55.330Z,43.90
2019-02-02T12:24:42.951Z,40.17
2019-02-02T12:27:30.447Z,42.30
2019-02-02T12:29:58.829Z,44.50
2019-02-02T12:32:46.329Z,46.03
2019-02-02T12:35:34.053Z,43.07
2019-02-02T12:38:02.442Z,44.87
2019-02-02T12:40:50.130Z,44.10
2019-02-02T12:43:57.119Z,43.67
2019-02-02T12:46:25.497Z,44.63
2019-02-02T12:48:53.904Z,44.73
2019-02-02T12:51:22.278Z,45.17
2019-02-02T12:54:09.999Z,45.67
2019-02-02T12:56:38.371Z,47.17
2019-02-02T12:59:46.667Z,46.30
2019-02-02T13:02:38.243Z,46.70
2019-02-02T13:05:23.588Z,47.50
2019-02-02T13:07:51.971Z,47.67
2019-02-02T13:11:00.261Z,48.70
2019-02-02T13:13:47.904Z,48.13
2019-02-02T13:16:16.280Z,54.63
2019-02-02T13:19:04.008Z,56.50
2019-02-02T13:21:51.635Z,43.90
2019-02-02T13:24:20.020Z,51.60
2019-02-02T13:27:07.651Z,53.00
2019-02-02T13:29:55.284Z,52.93
2019-02-02T13:35:51.025Z,55.17
2019-02-02T13:38:19.423Z,50.73
2019-02-02T13:41:06.911Z,53.63
2019-02-02T13:43:35.295Z,52.63
2019-02-02T13:46:23.184Z,53.43
2019-02-02T13:51:25.972Z,54.73
2019-02-02T13:54:06.290Z,51.77
2019-02-02T13:56:43.719Z,53.27
2019-02-02T14:01:45.805Z,56.23
2019-02-02T14:04:33.320Z,56.80
2019-02-02T14:07:01.707Z,57.33
2019-02-02T14:12:03.915Z,54.80
2019-02-02T14:14:32.304Z,55.23
2019-02-02T14:17:00.685Z,54.77
2019-02-02T14:19:29.067Z,55.20
2019-02-02T14:21:57.451Z,57.70
2019-02-02T14:24:25.840Z,56.47
2019-02-02T14:26:54.222Z,58.23
2019-02-02T14:29:22.751Z,58.37
2019-02-02T14:31:51.126Z,56.97
2019-02-02T14:34:19.522Z,57.57
2019-02-02T14:36:47.895Z,56.73
2019-02-02T14:39:16.282Z,54.00
2019-02-02T14:41:44.658Z,59.63
2019-02-02T14:44:13.097Z,58.37
2019-02-02T14:46:41.471Z,60.17
2019-02-02T14:49:09.929Z,55.53
2019-02-02T14:51:38.306Z,57.93
2019-02-02T14:54:06.684Z,58.80
2019-02-02T14:56:35.076Z,60.57
2019-02-02T14:59:03.928Z,62.00
2019-02-02T15:01:32.345Z,58.90
2019-02-02T15:04:00.825Z,60.83
2019-02-02T15:06:29.326Z,58.43
2019-02-02T15:08:57.698Z,58.37
2019-02-02T15:11:26.159Z,60.40
2019-02-02T15:13:54.546Z,61.27
2019-02-02T15:16:22.944Z,62.83
2019-02-02T15:18:51.320Z,62.90
2019-02-02T15:21:19.702Z,62.27
2019-02-02T15:23:48.080Z,61.40
2019-02-02T15:26:16.470Z,59.80
2019-02-02T15:28:44.864Z,63.27
2019-02-02T15:31:13.263Z,63.17
2019-02-02T15:33:41.644Z,63.07
2019-02-02T15:36:10.040Z,64.30
2019-02-02T15:38:38.435Z,65.70
2019-02-02T15:41:06.821Z,62.93
2019-02-02T15:43:35.200Z,61.97
2019-02-02T15:46:03.584Z,62.67
2019-02-02T15:48:31.959Z,61.20
2019-02-02T15:51:00.349Z,62.60
2019-02-02T15:53:28.735Z,64.90
2019-02-02T15:55:57.124Z,62.10
2019-02-02T15:58:25.498Z,65.90
2019-02-02T16:00:53.885Z,62.67
2019-02-02T16:03:22.258Z,62.90
2019-02-02T16:05:50.647Z,62.83
2019-02-02T16:08:19.024Z,63.37
2019-02-02T16:10:47.411Z,64.87
2019-02-02T16:13:15.799Z,65.23
2019-02-02T16:15:44.182Z,63.50
2019-02-02T16:18:12.557Z,65.60
2019-02-02T16:20:42.789Z,65.70
2019-02-02T16:23:11.226Z,65.70
2019-02-02T16:25:39.612Z,64.37
2019-02-02T16:28:08.093Z,63.40
2019-02-02T16:30:36.473Z,64.13
2019-02-02T16:33:05.248Z,65.90
2019-02-02T16:35:33.760Z,67.10
2019-02-02T16:38:02.149Z,61.17
2019-02-02T16:40:31.371Z,66.13
2019-02-02T16:42:59.750Z,66.20
2019-02-02T16:45:30.374Z,61.60
2019-02-02T16:47:59.018Z,64.10
2019-02-02T16:50:27.533Z,62.57
2019-02-02T16:52:55.924Z,65.70
2019-02-02T16:55:24.375Z,65.73
2019-02-02T16:57:52.934Z,63.73
2019-02-02T17:00:30.432Z,65.87
2019-02-02T17:02:58.907Z,67.10
2019-02-02T17:05:27.514Z,66.70
2019-02-02T17:07:56.087Z,62.97
2019-02-02T17:10:29.334Z,67.57
2019-02-02T17:12:57.786Z,65.80
2019-02-02T17:15:26.333Z,67.87
2019-02-02T17:17:54.704Z,63.27
2019-02-02T17:20:25.892Z,62.07
2019-02-02T17:22:54.282Z,62.07
2019-02-02T17:25:23.154Z,62.90
2019-02-02T17:27:51.593Z,66.43
2019-02-02T17:30:21.804Z,64.77
2019-02-02T17:32:50.823Z,63.17
2019-02-02T17:35:19.384Z,62.10
2019-02-02T17:37:47.758Z,65.10
2019-02-02T17:40:18.567Z,68.97
2019-02-02T17:42:46.950Z,66.57
2019-02-02T17:45:20.373Z,68.40
2019-02-02T17:47:49.299Z,64.37
2019-02-02T17:50:19.315Z,65.70
2019-02-02T17:52:47.947Z,64.27
2019-02-02T17:55:16.397Z,63.83
2019-02-02T17:57:44.784Z,62.67
2019-02-02T18:00:16.049Z,63.97
2019-02-02T18:02:44.452Z,71.27
2019-02-02T18:05:13.004Z,65.57
2019-02-02T18:07:41.379Z,62.77
2019-02-02T18:10:12.104Z,64.90
2019-02-02T18:12:40.700Z,63.13
2019-02-02T18:15:16.496Z,66.40
2019-02-02T18:17:44.877Z,62.37
2019-02-02T18:20:17.264Z,62.47
2019-02-02T18:22:45.711Z,62.57
2019-02-02T18:25:15.739Z,63.73
2019-02-02T18:27:44.381Z,62.80
2019-02-02T18:30:17.949Z,66.20
2019-02-02T18:32:46.415Z,63.07
2019-02-02T18:35:16.034Z,64.77
2019-02-02T18:37:44.581Z,68.80
2019-02-02T18:40:21.074Z,85.57
2019-02-02T18:42:49.600Z,67.67
2019-02-02T18:45:20.428Z,85.07
2019-02-02T18:47:48.875Z,71.50
2019-02-02T18:50:18.081Z,70.20
2019-02-02T18:52:48.106Z,80.30
2019-02-02T18:55:28.397Z,70.20
2019-02-02T18:57:56.783Z,63.43
2019-02-02T19:00:25.270Z,63.00
2019-02-02T19:02:53.735Z,62.83
2019-02-02T19:05:22.246Z,66.43
2019-02-02T19:07:50.700Z,64.17
2019-02-02T19:10:24.824Z,62.43
2019-02-02T19:12:53.205Z,63.10
2019-02-02T19:15:21.591Z,63.63
2019-02-02T19:17:49.982Z,68.60
2019-02-02T19:20:20.494Z,72.87
2019-02-02T19:22:48.943Z,65.27
2019-02-02T19:25:17.504Z,70.03
2019-02-02T19:27:45.884Z,67.00
2019-02-02T19:30:33.546Z,78.67
2019-02-02T19:33:01.918Z,72.50
2019-02-02T19:35:30.403Z,69.60
2019-02-02T19:37:58.771Z,71.00
2019-02-02T19:40:27.158Z,69.83
2019-02-02T19:42:55.590Z,70.13
2019-02-02T19:45:28.140Z,68.97
2019-02-02T19:47:56.528Z,73.33
2019-02-02T19:50:26.787Z,76.80
2019-02-02T19:52:55.408Z,70.00
2019-02-02T19:55:23.852Z,74.87
2019-02-02T19:57:52.225Z,70.67
2019-02-02T20:00:31.647Z,65.70
2019-02-02T20:03:00.285Z,67.17
2019-02-02T20:05:29.333Z,65.60
2019-02-02T20:07:57.731Z,66.70
2019-02-02T20:10:26.111Z,64.87
2019-02-02T20:12:54.555Z,68.63
2019-02-02T20:15:24.962Z,80.80
2019-02-02T20:17:53.408Z,66.00
2019-02-02T20:21:01.696Z,63.80
2019-02-02T20:23:49.412Z,64.23
2019-02-02T20:31:26.150Z,60.80
2019-02-02T20:34:13.845Z,63.57
2019-02-02T20:37:01.485Z,64.47
2019-02-02T20:42:36.530Z,64.83
2019-02-02T20:45:44.893Z,63.83
2019-02-02T20:48:32.535Z,59.67
2019-02-02T20:51:02.641Z,58.87
2019-02-02T20:53:31.068Z,62.50
2019-02-02T20:56:18.709Z,61.00
2019-02-02T20:58:47.087Z,58.10
2019-02-02T21:01:17.201Z,61.13
2019-02-02T21:04:04.702Z,60.10
2019-02-02T21:06:52.364Z,60.77
2019-02-02T21:09:20.747Z,62.87
2019-02-02T21:11:56.540Z,63.33
2019-02-02T21:14:38.630Z,61.20
2019-02-02T21:17:08.746Z,63.40
2019-02-02T21:19:37.214Z,61.27
2019-02-02T21:22:05.773Z,61.13
2019-02-02T21:24:34.170Z,63.67
2019-02-02T21:27:02.639Z,59.77
2019-02-02T21:29:31.024Z,60.10
2019-02-02T21:31:59.690Z,58.00
2019-02-02T21:34:28.063Z,64.00
2019-02-02T21:36:56.511Z,65.33
2019-02-02T21:39:25.015Z,63.07
2019-02-02T21:41:53.403Z,64.60
2019-02-02T21:44:21.775Z,65.60
2019-02-02T21:46:50.162Z,69.20
2019-02-02T21:49:18.539Z,66.43
2019-02-02T21:51:47.165Z,65.33
2019-02-02T21:54:15.617Z,67.77
2019-02-02T21:56:44.007Z,67.80
2019-02-02T21:59:12.385Z,64.33
2019-02-02T22:01:40.763Z,67.43
2019-02-02T22:04:09.156Z,66.20
2019-02-02T22:06:37.574Z,69.53
2019-02-02T22:09:07.700Z,65.70
2019-02-02T22:11:36.155Z,68.10
2019-02-02T22:14:05.055Z,68.03
2019-02-02T22:16:33.541Z,68.30
2019-02-02T22:19:02.184Z,70.10
2019-02-02T22:21:30.565Z,65.90
2019-02-02T22:23:58.955Z,67.30
2019-02-02T22:26:27.444Z,68.70
2019-02-02T22:28:57.849Z,64.70
2019-02-02T22:31:25.943Z,67.07
2019-02-02T22:33:54.395Z,66.17
2019-02-02T22:36:27.633Z,64.50
2019-02-02T22:38:52.932Z,64.70
2019-02-02T22:41:21.566Z,66.07
2019-02-02T22:43:49.950Z,63.97
2019-02-02T22:46:18.402Z,66.07
2019-02-02T22:48:46.795Z,69.07
2019-02-02T22:51:15.168Z,65.47
2019-02-02T22:53:43.558Z,63.27
2019-02-02T22:56:12.387Z,62.13
2019-02-02T22:58:40.771Z,64.40
2019-02-02T23:01:15.505Z,68.13
2019-02-02T23:04:02.419Z,65.67
2019-02-02T23:06:39.306Z,62.13
2019-02-02T23:09:26.454Z,62.93
2019-02-02T23:12:00.623Z,64.67
2019-02-02T23:14:32.058Z,69.40
2019-02-02T23:17:00.437Z,63.80
2019-02-02T23:19:29.024Z,62.67
2019-02-02T23:21:57.414Z,63.70
2019-02-02T23:24:25.789Z,63.70
2019-02-02T23:26:54.173Z,65.80
2019-02-02T23:29:22.691Z,63.47
2019-02-02T23:31:51.741Z,61.63
2019-02-02T23:34:20.196Z,62.70
2019-02-02T23:36:52.615Z,61.60
2019-02-02T23:39:18.693Z,59.07
2019-02-02T23:41:47.115Z,59.90
2019-02-02T23:44:15.500Z,58.60
2019-02-02T23:46:43.880Z,62.00
2019-02-02T23:49:12.269Z,59.97
2019-02-02T23:51:40.647Z,57.03
2019-02-02T23:54:09.413Z,61.47
2019-02-02T23:56:37.796Z,61.77
2019-02-02T23:59:06.200Z,59.50
